createdAt,value
2018-07-11T00:00:59.303Z,17.30
2018-07-11T00:03:38.974Z,17.30
2018-07-11T00:06:07.453Z,17.30
2018-07-11T00:08:35.938Z,17.30
2018-07-11T00:11:04.474Z,17.30
2018-07-11T00:13:33.117Z,17.30
2018-07-11T00:16:01.611Z,17.30
2018-07-11T00:18:30.641Z,17.20
2018-07-11T00:20:59.291Z,17.30
2018-07-11T00:23:27.931Z,17.30
2018-07-11T00:25:56.445Z,17.20
2018-07-11T00:28:24.966Z,17.20
2018-07-11T00:30:53.497Z,17.20
2018-07-11T00:33:22.119Z,17.20
2018-07-11T00:35:50.602Z,17.20
2018-07-11T00:38:19.411Z,17.10
2018-07-11T00:40:48.074Z,17.10
2018-07-11T00:43:16.602Z,17.10
2018-07-11T00:45:45.247Z,17.10
2018-07-11T00:48:14.238Z,17.10
2018-07-11T00:50:42.779Z,17.10
2018-07-11T00:53:11.718Z,17.10
2018-07-11T00:55:40.255Z,17.10
2018-07-11T00:58:22.310Z,17.10
2018-07-11T01:01:01.916Z,17.00
2018-07-11T01:03:30.713Z,17.00
2018-07-11T01:05:59.333Z,17.00
2018-07-11T01:08:28.524Z,17.00
2018-07-11T01:10:58.844Z,17.00
2018-07-11T01:13:27.460Z,17.00
2018-07-11T01:15:56.132Z,17.00
2018-07-11T01:18:24.916Z,16.90
2018-07-11T01:20:53.598Z,16.90
2018-07-11T01:23:22.193Z,16.90
2018-07-11T01:25:50.745Z,16.90
2018-07-11T01:28:19.333Z,16.90
2018-07-11T01:30:47.949Z,16.80
2018-07-11T01:33:16.620Z,16.80
2018-07-11T01:35:45.235Z,16.80
2018-07-11T01:38:13.865Z,16.80
2018-07-11T01:40:42.464Z,16.80
2018-07-11T01:43:11.090Z,16.80
2018-07-11T01:45:39.705Z,16.80
2018-07-11T01:48:08.329Z,16.80
2018-07-11T01:50:36.985Z,16.80
2018-07-11T01:53:05.681Z,16.80
2018-07-11T01:55:34.340Z,16.80
2018-07-11T01:58:02.996Z,16.80
2018-07-11T02:03:00.096Z,16.70
2018-07-11T02:05:28.718Z,16.70
2018-07-11T02:07:57.408Z,16.70
2018-07-11T02:10:26.120Z,16.70
2018-07-11T02:12:54.737Z,16.70
2018-07-11T02:15:23.406Z,16.60
2018-07-11T02:17:52.769Z,16.60
2018-07-11T02:20:21.409Z,16.60
2018-07-11T02:22:53.992Z,16.60
2018-07-11T02:25:22.784Z,16.50
2018-07-11T02:27:51.521Z,16.50
2018-07-11T02:30:20.201Z,16.50
2018-07-11T02:32:49.173Z,16.40
2018-07-11T02:35:17.973Z,16.40
2018-07-11T02:37:46.609Z,16.30
2018-07-11T02:40:15.219Z,16.20
2018-07-11T02:42:43.817Z,16.20
2018-07-11T02:45:12.522Z,16.10
2018-07-11T02:47:42.092Z,16.10
2018-07-11T02:50:10.860Z,16.10
2018-07-11T02:52:39.557Z,16.00
2018-07-11T02:55:08.306Z,16.00
2018-07-11T02:57:36.921Z,16.00
2018-07-11T03:00:06.029Z,16.00
2018-07-11T03:02:34.656Z,15.90
2018-07-11T03:05:03.360Z,15.90
2018-07-11T03:07:32.107Z,15.80
2018-07-11T03:10:00.688Z,15.80
2018-07-11T03:12:29.272Z,15.80
2018-07-11T03:14:57.940Z,15.70
2018-07-11T03:17:26.604Z,15.70
2018-07-11T03:19:55.222Z,15.60
2018-07-11T03:24:52.087Z,15.60
2018-07-11T03:27:20.722Z,15.50
2018-07-11T03:29:49.353Z,15.50
2018-07-11T03:32:17.945Z,15.50
2018-07-11T03:34:46.505Z,15.50
2018-07-11T03:37:15.201Z,15.50
2018-07-11T03:39:43.793Z,15.40
2018-07-11T03:42:12.384Z,15.40
2018-07-11T03:44:41.097Z,15.40
2018-07-11T03:47:09.673Z,15.40
2018-07-11T03:49:38.253Z,15.40
2018-07-11T03:52:07.120Z,15.40
2018-07-11T03:54:35.706Z,15.40
2018-07-11T03:57:04.288Z,15.40
2018-07-11T03:59:32.973Z,15.50
2018-07-11T04:02:01.519Z,15.50
2018-07-11T04:04:30.050Z,15.60
2018-07-11T04:06:58.608Z,15.60
2018-07-11T04:09:27.129Z,15.70
2018-07-11T04:11:56.027Z,15.80
2018-07-11T04:14:24.600Z,15.90
2018-07-11T04:16:53.188Z,16.00
2018-07-11T04:19:21.740Z,16.10
2018-07-11T04:21:50.582Z,16.10
2018-07-11T04:24:19.177Z,16.20
2018-07-11T04:26:47.791Z,16.30
2018-07-11T04:29:16.485Z,16.40
2018-07-11T04:31:45.137Z,16.50
2018-07-11T04:34:13.785Z,16.60
2018-07-11T04:36:42.561Z,16.70
2018-07-11T04:39:12.230Z,16.80
2018-07-11T04:41:40.956Z,16.90
2018-07-11T04:44:09.616Z,17.00
2018-07-11T04:46:38.241Z,17.10
2018-07-11T04:49:06.872Z,17.20
2018-07-11T04:51:35.612Z,17.30
2018-07-11T04:54:04.372Z,17.40
2018-07-11T04:56:33.012Z,17.40
2018-07-11T04:59:01.697Z,17.50
2018-07-11T05:01:30.279Z,17.50
2018-07-11T05:03:58.865Z,17.70
2018-07-11T05:06:27.490Z,17.70
2018-07-11T05:08:56.046Z,17.90
2018-07-11T05:11:24.629Z,17.90
2018-07-11T05:13:53.230Z,18.00
2018-07-11T05:16:21.782Z,18.10
2018-07-11T05:18:50.472Z,18.30
2018-07-11T05:21:19.045Z,18.40
2018-07-11T05:23:47.646Z,18.40
2018-07-11T05:26:16.328Z,18.50
2018-07-11T05:28:45.093Z,18.50
2018-07-11T05:31:13.664Z,18.60
2018-07-11T05:33:42.204Z,18.60
2018-07-11T05:36:10.781Z,18.70
2018-07-11T05:38:39.352Z,18.70
2018-07-11T05:41:07.961Z,18.70
2018-07-11T05:43:36.612Z,18.70
2018-07-11T05:46:05.495Z,18.60
2018-07-11T05:48:34.055Z,18.50
2018-07-11T05:51:02.728Z,18.50
2018-07-11T05:53:31.272Z,18.50
2018-07-11T05:55:59.814Z,18.50
2018-07-11T05:58:28.425Z,18.40
2018-07-11T06:00:57.007Z,18.50
2018-07-11T06:03:25.576Z,18.50
2018-07-11T06:05:54.210Z,18.50
2018-07-11T06:08:22.792Z,18.60
2018-07-11T06:10:51.328Z,18.60
2018-07-11T06:13:20.018Z,18.70
2018-07-11T06:18:17.609Z,18.90
2018-07-11T06:20:46.296Z,19.10
2018-07-11T06:23:14.837Z,19.20
2018-07-11T06:25:43.389Z,19.40
2018-07-11T06:28:12.021Z,19.60
2018-07-11T06:30:40.705Z,19.80
2018-07-11T06:33:09.284Z,20.00
2018-07-11T06:38:06.192Z,20.30
2018-07-11T06:40:34.772Z,20.40
2018-07-11T06:43:03.401Z,20.60
2018-07-11T06:45:31.984Z,20.80
2018-07-11T06:48:00.632Z,21.10
2018-07-11T06:50:29.854Z,21.30
2018-07-11T06:52:58.431Z,21.30
2018-07-11T06:55:27.012Z,21.40
2018-07-11T06:57:55.709Z,21.50
2018-07-11T07:00:24.260Z,21.50
2018-07-11T07:02:53.157Z,21.50
2018-07-11T07:05:21.728Z,21.60
2018-07-11T07:07:50.697Z,21.60
2018-07-11T07:10:19.461Z,21.60
2018-07-11T07:12:48.135Z,21.70
2018-07-11T07:15:17.213Z,21.80
2018-07-11T07:17:45.810Z,21.90
2018-07-11T07:20:14.428Z,22.00
2018-07-11T07:22:42.981Z,22.10
2018-07-11T07:25:11.560Z,22.20
2018-07-11T07:27:40.165Z,22.30
2018-07-11T07:30:08.785Z,22.40
2018-07-11T07:32:37.342Z,22.50
2018-07-11T07:35:06.041Z,22.50
2018-07-11T07:37:34.596Z,22.60
2018-07-11T07:40:03.222Z,22.70
2018-07-11T07:42:31.909Z,22.70
2018-07-11T07:45:00.514Z,22.70
2018-07-11T07:47:34.345Z,22.70
2018-07-11T07:50:02.964Z,22.70
2018-07-11T07:52:31.581Z,22.70
2018-07-11T07:55:00.229Z,22.80
2018-07-11T07:57:29.169Z,22.90
2018-07-11T07:59:57.769Z,23.00
2018-07-11T08:02:26.449Z,23.10
2018-07-11T08:04:55.941Z,23.20
2018-07-11T08:07:24.525Z,23.30
2018-07-11T08:09:53.153Z,23.40
2018-07-11T08:12:21.737Z,23.50
2018-07-11T08:14:50.578Z,23.50
2018-07-11T08:17:19.178Z,23.50
2018-07-11T08:19:47.692Z,23.50
2018-07-11T08:22:27.458Z,23.50
2018-07-11T08:25:07.035Z,23.40
2018-07-11T08:27:54.628Z,23.30
2018-07-11T08:30:34.769Z,23.20
2018-07-11T08:33:26.066Z,23.10
2018-07-11T08:36:13.667Z,23.20
2018-07-11T08:40:58.634Z,23.30
2018-07-11T08:44:08.007Z,23.50
2018-07-11T08:47:52.857Z,23.70
2018-07-11T08:51:41.757Z,23.80
2018-07-11T08:54:29.247Z,24.00
2018-07-11T08:59:12.399Z,23.90
2018-07-11T09:03:54.225Z,23.80
2018-07-11T09:06:35.618Z,23.90
2018-07-11T09:11:19.613Z,24.10
2018-07-11T09:13:59.154Z,24.10
2018-07-11T09:18:44.771Z,24.10
2018-07-11T09:21:29.016Z,24.30
2018-07-11T09:25:03.193Z,24.70
2018-07-11T09:27:31.683Z,24.90
2018-07-11T09:30:00.167Z,25.20
2018-07-11T09:32:28.725Z,25.50
2018-07-11T09:34:57.224Z,25.70
2018-07-11T09:37:25.722Z,25.90
2018-07-11T09:39:54.250Z,26.00
2018-07-11T09:42:22.798Z,26.00
2018-07-11T09:44:51.266Z,26.10
2018-07-11T09:47:24.891Z,26.20
2018-07-11T09:49:53.385Z,26.40
2018-07-11T09:52:21.842Z,26.40
2018-07-11T09:54:50.611Z,26.40
2018-07-11T09:57:19.192Z,26.40
2018-07-11T09:59:47.727Z,26.40
2018-07-11T10:02:16.322Z,26.40
2018-07-11T10:04:44.870Z,26.40
2018-07-11T10:07:13.702Z,26.50
2018-07-11T10:09:42.304Z,26.60
2018-07-11T10:12:10.778Z,26.70
2018-07-11T10:14:39.197Z,26.80
2018-07-11T10:17:07.698Z,26.90
2018-07-11T10:19:36.169Z,27.00
2018-07-11T10:22:04.639Z,27.20
2018-07-11T10:24:33.147Z,27.20
2018-07-11T10:27:01.601Z,27.20
2018-07-11T10:29:30.026Z,27.20
2018-07-11T10:31:58.595Z,27.40
2018-07-11T10:34:27.075Z,27.50
2018-07-11T10:36:55.559Z,27.50
2018-07-11T10:39:24.150Z,27.40
2018-07-11T10:41:52.630Z,27.40
2018-07-11T10:44:21.649Z,27.40
2018-07-11T10:46:54.218Z,27.30
2018-07-11T10:49:22.718Z,27.30
2018-07-11T10:51:51.233Z,27.30
2018-07-11T10:54:19.783Z,27.30
2018-07-11T10:56:48.270Z,27.40
2018-07-11T10:59:16.766Z,27.60
2018-07-11T11:01:45.286Z,27.80
2018-07-11T11:04:15.658Z,28.00
2018-07-11T11:06:44.250Z,28.00
2018-07-11T11:09:12.803Z,27.90
2018-07-11T11:11:41.280Z,28.00
2018-07-11T11:14:09.879Z,28.10
2018-07-11T11:16:38.398Z,28.30
2018-07-11T11:19:06.941Z,28.20
2018-07-11T11:21:35.446Z,28.00
2018-07-11T11:24:03.973Z,27.80
2018-07-11T11:26:32.449Z,27.80
2018-07-11T11:29:00.912Z,27.90
2018-07-11T11:31:29.462Z,28.10
2018-07-11T11:33:57.911Z,28.20
2018-07-11T11:36:26.427Z,28.00
2018-07-11T11:38:54.935Z,27.90
2018-07-11T11:41:23.454Z,27.60
2018-07-11T11:43:51.917Z,27.30
2018-07-11T11:46:20.531Z,27.10
2018-07-11T11:48:48.998Z,27.10
2018-07-11T11:51:17.470Z,27.20
2018-07-11T11:53:45.977Z,27.30
2018-07-11T11:56:14.434Z,27.30
2018-07-11T11:58:42.946Z,27.20
2018-07-11T12:01:11.629Z,27.20
2018-07-11T12:03:40.101Z,27.30
2018-07-11T12:06:08.600Z,27.50
2018-07-11T12:08:37.118Z,27.70
2018-07-11T12:11:05.570Z,28.00
2018-07-11T12:13:34.070Z,28.30
2018-07-11T12:16:04.333Z,28.40
2018-07-11T12:18:32.778Z,28.30
2018-07-11T12:21:01.364Z,28.30
2018-07-11T12:23:29.986Z,28.40
2018-07-11T12:26:09.747Z,28.50
2018-07-11T12:28:38.289Z,28.60
2018-07-11T12:31:06.921Z,28.70
2018-07-11T12:33:35.742Z,28.70
2018-07-11T12:36:04.490Z,28.90
2018-07-11T12:38:33.831Z,29.00
2018-07-11T12:41:02.383Z,29.00
2018-07-11T12:43:31.033Z,29.10
2018-07-11T12:45:59.683Z,29.10
2018-07-11T12:48:33.391Z,29.10
2018-07-11T12:51:02.525Z,29.10
2018-07-11T12:53:31.010Z,29.20
2018-07-11T12:55:59.742Z,29.40
2018-07-11T12:58:28.241Z,29.50
2018-07-11T13:00:56.866Z,29.50
2018-07-11T13:03:25.934Z,29.40
2018-07-11T13:05:54.472Z,29.40
2018-07-11T13:08:23.785Z,29.50
2018-07-11T13:10:52.314Z,29.60
2018-07-11T13:13:20.890Z,29.60
2018-07-11T13:15:49.419Z,29.50
2018-07-11T13:18:17.952Z,29.40
2018-07-11T13:20:46.399Z,29.20
2018-07-11T13:23:14.850Z,29.20
2018-07-11T13:25:43.400Z,29.30
2018-07-11T13:28:11.866Z,29.40
2018-07-11T13:30:40.397Z,29.60
2018-07-11T13:33:08.990Z,29.60
2018-07-11T13:35:37.474Z,29.60
2018-07-11T13:38:05.984Z,29.50
2018-07-11T13:40:34.590Z,29.20
2018-07-11T13:43:03.090Z,29.10
2018-07-11T13:45:31.569Z,28.90
2018-07-11T13:48:03.202Z,28.90
2018-07-11T13:50:33.709Z,28.90
2018-07-11T13:53:02.534Z,28.90
2018-07-11T13:55:31.674Z,29.00
2018-07-11T13:58:01.761Z,29.10
2018-07-11T14:00:30.750Z,29.10
2018-07-11T14:05:27.409Z,29.30
2018-07-11T14:07:55.914Z,29.40
2018-07-11T14:10:24.457Z,29.50
2018-07-11T14:12:53.080Z,29.50
2018-07-11T14:15:21.661Z,29.60
2018-07-11T14:17:50.188Z,29.50
2018-07-11T14:20:18.756Z,29.50
2018-07-11T14:22:48.044Z,29.40
2018-07-11T14:25:17.554Z,29.30
2018-07-11T14:27:48.301Z,29.40
2018-07-11T14:30:16.864Z,29.40
2018-07-11T14:32:50.610Z,29.40
2018-07-11T14:35:19.413Z,29.30
2018-07-11T14:37:49.262Z,29.20
2018-07-11T14:40:17.913Z,29.20
2018-07-11T14:42:46.697Z,29.10
2018-07-11T14:45:15.622Z,29.00
2018-07-11T14:47:49.368Z,29.00
2018-07-11T14:50:24.133Z,29.00
2018-07-11T14:52:52.929Z,28.90
2018-07-11T14:55:21.431Z,29.00
2018-07-11T14:57:50.406Z,29.00
2018-07-11T15:00:18.911Z,29.00
2018-07-11T15:02:47.573Z,29.00
2018-07-11T15:05:16.018Z,28.90
2018-07-11T15:07:44.658Z,28.90
2018-07-11T15:10:13.285Z,29.00
2018-07-11T15:12:41.837Z,29.00
2018-07-11T15:15:10.417Z,29.10
2018-07-11T15:17:41.558Z,29.10
2018-07-11T15:20:10.107Z,29.20
2018-07-11T15:22:38.657Z,29.30
2018-07-11T15:25:07.158Z,29.30
2018-07-11T15:27:35.782Z,29.30
2018-07-11T15:30:04.330Z,29.40
2018-07-11T15:32:33.109Z,29.40
2018-07-11T15:35:01.583Z,29.40
2018-07-11T15:37:30.208Z,29.40
2018-07-11T15:39:59.157Z,29.40
2018-07-11T15:42:27.821Z,29.30
2018-07-11T15:44:56.470Z,29.40
2018-07-11T15:47:25.338Z,29.60
2018-07-11T15:49:54.393Z,29.70
2018-07-11T15:52:24.583Z,29.70
2018-07-11T15:54:55.872Z,29.80
2018-07-11T15:57:37.618Z,30.00
2018-07-11T16:00:09.990Z,30.20
2018-07-11T16:02:45.225Z,30.50
2018-07-11T16:05:17.860Z,30.90
2018-07-11T16:07:48.070Z,31.20
2018-07-11T16:10:16.739Z,31.70
2018-07-11T16:12:45.241Z,32.10
2018-07-11T16:15:13.750Z,32.50
2018-07-11T16:17:42.352Z,33.00
2018-07-11T16:20:10.827Z,33.50
2018-07-11T16:22:39.362Z,34.00
2018-07-11T16:25:08.078Z,34.30
2018-07-11T16:34:20.724Z,34.80
2018-07-11T16:36:49.362Z,35.00
2018-07-11T16:39:18.305Z,34.90
2018-07-11T16:41:46.873Z,34.70
2018-07-11T16:44:15.384Z,34.60
2018-07-11T16:46:43.927Z,34.70
2018-07-11T16:49:12.530Z,34.70
2018-07-11T16:51:41.089Z,34.70
2018-07-11T16:54:09.758Z,34.70
2018-07-11T16:56:38.951Z,34.60
2018-07-11T16:59:10.256Z,34.40
2018-07-11T17:01:48.970Z,34.20
2018-07-11T17:04:17.515Z,34.00
2018-07-11T17:06:46.022Z,34.00
2018-07-11T17:09:14.586Z,33.80
2018-07-11T17:11:43.090Z,33.40
2018-07-11T17:14:12.551Z,32.90
2018-07-11T17:16:53.193Z,32.60
2018-07-11T17:19:29.951Z,32.40
2018-07-11T17:22:00.378Z,32.40
2018-07-11T17:24:29.648Z,32.40
2018-07-11T17:26:59.151Z,32.40
2018-07-11T17:29:29.129Z,32.50
2018-07-11T17:32:08.584Z,32.80
2018-07-11T17:34:41.483Z,33.00
2018-07-11T17:37:11.840Z,32.90
2018-07-11T17:39:49.781Z,32.60
2018-07-11T17:42:24.174Z,31.80
2018-07-11T17:45:00.963Z,30.70
2018-07-11T17:47:31.442Z,30.20
2018-07-11T17:50:04.534Z,29.90
2018-07-11T17:52:55.124Z,29.60
2018-07-11T17:55:31.890Z,29.00
2018-07-11T17:58:04.763Z,28.20
2018-07-11T18:00:57.850Z,27.50
2018-07-11T18:03:31.854Z,27.00
2018-07-11T18:06:40.970Z,26.50
2018-07-11T18:09:10.855Z,26.10
2018-07-11T18:11:57.339Z,25.80
2018-07-11T18:14:38.218Z,25.60
2018-07-11T18:19:26.161Z,25.30
2018-07-11T18:22:08.449Z,25.10
2018-07-11T18:24:51.153Z,24.80
2018-07-11T18:27:34.126Z,24.70
2018-07-11T18:32:18.138Z,24.60
2018-07-11T18:35:30.078Z,24.50
2018-07-11T18:38:14.743Z,24.30
2018-07-11T18:41:00.997Z,24.20
2018-07-11T18:45:44.110Z,24.10
2018-07-11T18:49:20.100Z,24.10
2018-07-11T18:51:56.594Z,23.90
2018-07-11T18:54:34.146Z,23.70
2018-07-11T18:57:06.366Z,23.50
2018-07-11T19:00:45.246Z,23.40
2018-07-11T19:05:53.987Z,23.10
2018-07-11T19:08:37.743Z,23.00
2018-07-11T19:13:52.961Z,22.70
2018-07-11T19:16:28.496Z,22.60
2018-07-11T19:19:07.269Z,22.50
2018-07-11T19:21:51.602Z,22.40
2018-07-11T19:24:20.401Z,22.30
2018-07-11T19:26:55.518Z,22.20
2018-07-11T19:29:38.138Z,22.00
2018-07-11T19:32:20.494Z,21.90
2018-07-11T19:35:07.471Z,21.80
2018-07-11T19:37:48.262Z,21.70
2018-07-11T19:40:29.575Z,21.70
2018-07-11T19:45:09.006Z,21.60
2018-07-11T19:47:47.263Z,21.50
2018-07-11T19:52:29.158Z,21.40
2018-07-11T19:55:11.535Z,21.30
2018-07-11T19:57:40.043Z,21.20
2018-07-11T20:00:08.686Z,21.10
2018-07-11T20:02:38.311Z,21.00
2018-07-11T20:05:06.858Z,20.90
2018-07-11T20:07:35.530Z,20.90
2018-07-11T20:10:04.350Z,20.80
2018-07-11T20:12:33.242Z,20.70
2018-07-11T20:15:01.783Z,20.70
2018-07-11T20:17:30.286Z,20.60
2018-07-11T20:19:58.793Z,20.60
2018-07-11T20:22:27.241Z,20.50
2018-07-11T20:24:55.814Z,20.40
2018-07-11T20:27:24.338Z,20.40
2018-07-11T20:29:52.814Z,20.30
2018-07-11T20:32:21.365Z,20.20
2018-07-11T20:34:49.858Z,20.20
2018-07-11T20:37:18.378Z,20.20
2018-07-11T20:39:47.009Z,20.10
2018-07-11T20:42:15.526Z,20.00
2018-07-11T20:44:44.077Z,20.00
2018-07-11T20:47:12.742Z,19.90
2018-07-11T20:49:41.338Z,19.80
2018-07-11T20:52:09.936Z,19.60
2018-07-11T20:54:38.471Z,19.50
2018-07-11T20:57:07.038Z,19.50
2018-07-11T20:59:46.661Z,19.40
2018-07-11T21:02:26.361Z,19.40
2018-07-11T21:05:42.608Z,19.40
2018-07-11T21:08:30.827Z,19.40
2018-07-11T21:15:16.577Z,19.30
2018-07-11T21:17:57.979Z,19.20
2018-07-11T21:20:26.484Z,19.00
2018-07-11T21:22:55.074Z,18.90
2018-07-11T21:25:23.566Z,18.90
2018-07-11T21:27:52.078Z,18.80
2018-07-11T21:30:20.542Z,18.80
2018-07-11T21:32:48.996Z,18.70
2018-07-11T21:35:17.459Z,18.60
2018-07-11T21:37:46.062Z,18.50
2018-07-11T21:40:14.594Z,18.40
2018-07-11T21:42:43.127Z,18.30
2018-07-11T21:45:11.559Z,18.30
2018-07-11T21:47:39.981Z,18.10
2018-07-11T21:50:08.608Z,18.10
2018-07-11T21:52:37.053Z,18.00
2018-07-11T21:55:05.662Z,17.80
2018-07-11T21:57:34.297Z,17.70
2018-07-11T22:00:02.837Z,17.50
2018-07-11T22:02:31.473Z,17.40
2018-07-11T22:04:59.980Z,17.30
2018-07-11T22:07:28.518Z,17.20
2018-07-11T22:09:57.006Z,17.10
2018-07-11T22:12:25.962Z,17.00
2018-07-11T22:14:54.390Z,17.00
2018-07-11T22:19:34.015Z,17.00
2018-07-11T22:22:01.319Z,17.10
2018-07-11T22:24:28.631Z,17.10
2018-07-11T22:26:55.982Z,17.10
2018-07-11T22:29:23.294Z,17.10
2018-07-11T22:34:18.280Z,17.10
2018-07-11T22:36:45.596Z,17.10
2018-07-11T22:39:12.915Z,17.10
2018-07-11T22:41:40.274Z,17.10
2018-07-11T22:44:07.577Z,17.10
2018-07-11T22:46:34.881Z,17.20
2018-07-11T22:49:02.243Z,17.20
2018-07-11T22:51:29.545Z,17.20
2018-07-11T22:53:56.858Z,17.10
2018-07-11T22:56:24.254Z,17.00
2018-07-11T22:58:51.721Z,16.90
2018-07-11T23:01:19.038Z,16.80
2018-07-11T23:03:46.384Z,16.70
2018-07-11T23:06:13.683Z,16.60
2018-07-11T23:08:40.986Z,16.60
2018-07-11T23:11:08.318Z,16.60
2018-07-11T23:13:35.618Z,16.50
2018-07-11T23:16:02.914Z,16.50
2018-07-11T23:18:30.278Z,16.40
2018-07-11T23:20:57.599Z,16.40
2018-07-11T23:23:24.926Z,16.30
2018-07-11T23:25:52.267Z,16.20
2018-07-11T23:28:19.571Z,16.20
2018-07-11T23:30:46.870Z,16.20
2018-07-11T23:33:14.251Z,16.10
2018-07-11T23:35:41.558Z,16.10
2018-07-11T23:38:08.874Z,16.10
2018-07-11T23:43:03.837Z,16.10
2018-07-11T23:45:31.146Z,16.20
2018-07-11T23:47:58.614Z,16.30
2018-07-11T23:50:25.915Z,16.30
2018-07-11T23:52:53.218Z,16.30
2018-07-11T23:55:20.542Z,16.40
2018-07-11T23:57:47.849Z,16.50
